Time;durP1;ratioP1;P1;durP2;ratioP2;P2;SDS_P1;SDS_P2;PMS_P1;PMS_P2;Temp;Humidity;BMP_temperature;BMP_pressure;BME280_temperature;BME280_humidity;BME280_pressure;Samples;Min_cycle;Max_cycle;Signal;HPM_P1;HPM_P2
2024/04/11 00:02:07;;;;;;;5.17;2.60;;;4.60;99.90;;;;;;5421274;26;20233;-70
2024/04/11 00:04:34;;;;;;;6.47;2.90;;;4.60;99.90;;;;;;5422427;26;20402;-70
2024/04/11 00:07:02;;;;;;;4.73;2.57;;;4.60;99.90;;;;;;5418268;26;20325;-70
2024/04/11 00:09:28;;;;;;;4.07;2.60;;;4.60;99.90;;;;;;5418072;26;20347;-70
2024/04/11 00:11:56;;;;;;;3.80;2.73;;;4.60;99.90;;;;;;5417945;26;20627;-70
2024/04/11 00:14:25;;;;;;;3.67;2.50;;;4.70;99.90;;;;;;5418057;26;20222;-70
2024/04/11 00:16:53;;;;;;;5.10;2.70;;;4.70;99.90;;;;;;5418852;26;20552;-71
2024/04/11 00:19:22;;;;;;;3.90;2.60;;;4.70;99.90;;;;;;5417659;26;20221;-71
2024/04/11 00:21:48;;;;;;;4.83;2.93;;;4.50;99.90;;;;;;5417836;26;20237;-70
2024/04/11 00:24:17;;;;;;;3.17;2.43;;;4.60;99.90;;;;;;5419464;26;20229;-70
2024/04/11 00:26:45;;;;;;;3.53;2.60;;;4.50;99.90;;;;;;5417940;26;20222;-70
2024/04/11 00:29:14;;;;;;;4.53;2.60;;;4.40;99.90;;;;;;5418114;26;20329;-70
2024/04/11 00:31:40;;;;;;;3.03;2.50;;;4.40;99.90;;;;;;5418518;26;20256;-70
2024/04/11 00:34:23;;;;;;;3.37;2.60;;;4.30;99.90;;;;;;5419211;26;20232;-70
2024/04/11 00:36:50;;;;;;;4.20;2.27;;;4.30;99.90;;;;;;5417842;26;20754;-70
2024/04/11 00:39:20;;;;;;;5.13;3.10;;;4.30;99.90;;;;;;5417408;26;20278;-70
2024/04/11 00:41:46;;;;;;;2.90;2.67;;;4.20;99.90;;;;;;5417907;26;20233;-70
2024/04/11 00:44:16;;;;;;;3.93;2.53;;;4.20;99.90;;;;;;5417712;26;20718;-70
2024/04/11 00:46:42;;;;;;;2.83;2.50;;;4.20;99.90;;;;;;5418023;26;20225;-70
2024/04/11 00:49:16;;;;;;;3.93;2.80;;;4.20;99.90;;;;;;5417314;26;20303;-70
2024/04/11 00:51:42;;;;;;;7.57;2.70;;;4.10;99.90;;;;;;5417554;26;20229;-69
2024/04/11 00:54:11;;;;;;;3.20;2.90;;;4.10;99.90;;;;;;5420662;26;20263;-69
2024/04/11 00:56:40;;;;;;;5.70;2.60;;;4.10;99.90;;;;;;5420919;26;20237;-69
2024/04/11 00:59:09;;;;;;;4.17;2.40;;;4.10;99.90;;;;;;5421469;26;20322;-69
2024/04/11 01:01:36;;;;;;;3.13;2.27;;;4.10;99.90;;;;;;5420495;26;20726;-69
2024/04/11 01:04:05;;;;;;;5.80;2.53;;;4.10;99.90;;;;;;5420409;26;20577;-69
2024/04/11 01:07:06;;;;;;;4.53;2.50;;;4.10;99.90;;;;;;5420405;26;20222;-69
2024/04/11 01:09:35;;;;;;;3.53;2.67;;;4.10;99.90;;;;;;5420431;26;20221;-69
2024/04/11 01:12:02;;;;;;;3.57;2.90;;;4.10;99.90;;;;;;5422375;26;20233;-70
2024/04/11 01:14:31;;;;;;;5.37;2.83;;;4.10;99.90;;;;;;5421834;26;20251;-70
2024/04/11 01:16:57;;;;;;;7.03;3.57;;;4.10;99.90;;;;;;5420435;26;20217;-69
2024/04/11 01:19:26;;;;;;;5.23;2.77;;;4.00;99.90;;;;;;5421014;26;20217;-69
2024/04/11 01:21:56;;;;;;;4.77;3.60;;;3.90;99.90;;;;;;5420480;26;20252;-69
2024/04/11 01:24:27;;;;;;;5.93;3.20;;;3.90;99.90;;;;;;5420726;26;20221;-70
2024/04/11 01:26:54;;;;;;;3.73;3.20;;;3.80;99.90;;;;;;5420498;26;20252;-70
2024/04/11 01:29:23;;;;;;;6.17;3.20;;;3.80;99.90;;;;;;5422303;26;20213;-70
2024/04/11 01:31:53;;;;;;;3.60;3.30;;;3.80;99.90;;;;;;5420398;26;20240;-70
2024/04/11 01:34:22;;;;;;;4.73;2.80;;;3.70;99.90;;;;;;5420754;26;20244;-71
2024/04/11 01:36:49;;;;;;;3.43;2.93;;;3.70;99.90;;;;;;5421271;26;20217;-70
2024/04/11 01:39:17;;;;;;;3.00;2.60;;;3.70;99.90;;;;;;5420069;26;20642;-71
2024/04/11 01:41:46;;;;;;;7.67;2.83;;;3.70;99.90;;;;;;5420326;26;20233;-70
2024/04/11 01:44:14;;;;;;;4.10;2.73;;;3.70;99.90;;;;;;5420409;26;20217;-70
2024/04/11 01:46:40;;;;;;;4.30;2.90;;;3.70;99.90;;;;;;5421881;26;20221;-70
2024/04/11 01:49:08;;;;;;;6.20;3.10;;;3.70;99.90;;;;;;5420031;26;20261;-70
2024/04/11 01:51:34;;;;;;;5.10;3.13;;;3.60;99.90;;;;;;5420093;26;20237;-70
2024/04/11 01:54:05;;;;;;;3.30;3.00;;;3.60;99.90;;;;;;5419889;26;20270;-70
2024/04/11 01:56:34;;;;;;;5.13;2.97;;;3.60;99.90;;;;;;5419986;26;20710;-70
2024/04/11 01:59:06;;;;;;;5.13;2.60;;;3.60;99.90;;;;;;5419676;26;20379;-70
2024/04/11 02:01:34;;;;;;;6.53;3.27;;;3.70;99.90;;;;;;5419890;26;20245;-70
2024/04/11 02:04:05;;;;;;;5.17;3.07;;;3.70;99.90;;;;;;5420311;26;20225;-70
2024/04/11 02:06:31;;;;;;;5.60;3.67;;;3.70;99.90;;;;;;5420028;26;20800;-71
2024/04/11 02:09:00;;;;;;;5.67;3.13;;;3.70;99.90;;;;;;5419801;26;20221;-71
2024/04/11 02:11:26;;;;;;;4.00;3.60;;;3.70;99.90;;;;;;5420563;26;20256;-71
2024/04/11 02:13:55;;;;;;;5.67;3.83;;;3.70;99.90;;;;;;5420540;26;20657;-70
2024/04/11 02:16:24;;;;;;;4.20;3.80;;;3.70;99.90;;;;;;5421190;26;20519;-71
2024/04/11 02:18:53;;;;;;;4.83;3.83;;;3.70;99.90;;;;;;5420288;26;20611;-71
2024/04/11 02:21:19;;;;;;;4.10;3.20;;;3.60;99.90;;;;;;5421570;26;20252;-70
2024/04/11 02:23:47;;;;;;;6.90;3.80;;;3.60;99.90;;;;;;5420795;26;20273;-71
2024/04/11 02:26:13;;;;;;;4.37;3.27;;;3.60;99.90;;;;;;5419673;26;20228;-71
2024/04/11 02:28:42;;;;;;;6.83;3.70;;;3.60;99.90;;;;;;5419863;26;20276;-70
2024/04/11 02:31:08;;;;;;;6.17;3.40;;;3.60;99.90;;;;;;5419550;26;20245;-70
2024/04/11 02:33:39;;;;;;;6.20;3.67;;;3.60;99.90;;;;;;5419425;26;20687;-70
2024/04/11 02:36:06;;;;;;;5.40;3.27;;;3.50;99.90;;;;;;5420280;26;20248;-71
2024/04/11 02:38:35;;;;;;;3.70;2.60;;;3.50;99.90;;;;;;5419758;26;20262;-71
2024/04/11 02:41:00;;;;;;;6.23;2.73;;;3.40;99.90;;;;;;5419608;26;20233;-70
2024/04/11 02:43:29;;;;;;;2.53;2.33;;;3.50;99.90;;;;;;5419830;26;20580;-70
2024/04/11 02:45:57;;;;;;;5.20;2.83;;;3.50;99.90;;;;;;5419779;26;20214;-70
2024/04/11 02:48:27;;;;;;;4.90;2.80;;;3.60;99.90;;;;;;5419798;26;20276;-71
2024/04/11 02:50:57;;;;;;;4.80;2.50;;;3.70;99.90;;;;;;5419385;26;20241;-71
2024/04/11 02:53:25;;;;;;;3.90;2.37;;;3.60;99.90;;;;;;5419191;26;20255;-71
2024/04/11 02:55:54;;;;;;;5.20;2.93;;;3.50;99.90;;;;;;5419162;26;20275;-71
2024/04/11 02:58:23;;;;;;;4.77;2.63;;;3.40;99.90;;;;;;5419232;26;20213;-71
2024/04/11 03:00:58;;;;;;;5.07;2.67;;;3.30;99.90;;;;;;5419265;26;20559;-71
2024/04/11 03:03:27;;;;;;;4.90;2.90;;;3.30;99.90;;;;;;5419702;26;20178;-70
2024/04/11 03:06:05;;;;;;;3.50;2.47;;;3.30;99.90;;;;;;5419227;26;20225;-70
2024/04/11 03:08:34;;;;;;;6.07;3.03;;;3.20;99.90;;;;;;5419195;26;20239;-70
2024/04/11 03:11:01;;;;;;;5.40;3.47;;;3.10;99.90;;;;;;5420463;26;20225;-71
2024/04/11 03:13:29;;;;;;;3.97;2.90;;;3.10;99.90;;;;;;5419502;26;20561;-72
2024/04/11 03:15:58;;;;;;;4.33;2.80;;;3.10;99.90;;;;;;5419458;26;20252;-72
2024/04/11 03:18:27;;;;;;;5.93;2.90;;;3.20;99.90;;;;;;5419649;26;20237;-71
2024/04/11 03:20:56;;;;;;;3.47;2.50;;;3.20;99.90;;;;;;5419050;26;20314;-71
2024/04/11 03:23:26;;;;;;;6.43;2.83;;;3.20;99.90;;;;;;5420748;26;20759;-72
2024/04/11 03:25:52;;;;;;;4.23;2.50;;;3.00;99.90;;;;;;5422188;26;20271;-72
2024/04/11 03:28:21;;;;;;;4.83;2.90;;;3.00;99.90;;;;;;5422280;26;20230;-70
2024/04/11 03:30:53;;;;;;;7.93;3.23;;;2.90;99.90;;;;;;5420850;26;20267;-70
2024/04/11 03:33:22;;;;;;;5.23;3.33;;;2.80;99.90;;;;;;5421529;26;20213;-70
2024/04/11 03:36:00;;;;;;;8.77;3.10;;;2.80;99.90;;;;;;5420638;26;20756;-70
2024/04/11 03:38:30;;;;;;;7.43;3.47;;;2.80;99.90;;;;;;5420604;26;20252;-71
2024/04/11 03:40:58;;;;;;;4.17;3.30;;;2.80;99.90;;;;;;5419864;26;20760;-71
2024/04/11 03:43:27;;;;;;;4.93;3.23;;;2.70;99.90;;;;;;5419426;26;20260;-71
2024/04/11 03:45:58;;;;;;;4.10;3.23;;;2.70;99.90;;;;;;5419015;26;20256;-71
2024/04/11 03:48:26;;;;;;;5.87;3.50;;;2.60;99.90;;;;;;5418497;26;20570;-71
2024/04/11 03:50:52;;;;;;;5.20;3.27;;;2.70;99.90;;;;;;5418275;26;20657;-70
2024/04/11 03:53:23;;;;;;;4.23;3.30;;;2.70;99.90;;;;;;5419147;26;20244;-71
2024/04/11 03:55:49;;;;;;;4.50;3.53;;;2.80;99.90;;;;;;5419004;26;20244;-70
2024/04/11 03:58:18;;;;;;;4.00;3.20;;;2.80;99.90;;;;;;5418430;26;20229;-70
2024/04/11 04:00:45;;;;;;;7.53;3.30;;;2.80;99.90;;;;;;5419387;26;20610;-71
2024/04/11 04:03:13;;;;;;;3.57;3.13;;;2.90;99.90;;;;;;5418882;26;20221;-70
2024/04/11 04:05:40;;;;;;;5.80;3.37;;;2.90;99.90;;;;;;5418957;26;20222;-71
2024/04/11 04:08:09;;;;;;;3.80;3.50;;;2.90;99.90;;;;;;5418437;26;20276;-70
2024/04/11 04:10:37;;;;;;;4.30;3.40;;;2.90;99.90;;;;;;5419832;26;20241;-71
2024/04/11 04:13:09;;;;;;;5.30;3.17;;;2.80;99.90;;;;;;5420149;26;20316;-71
2024/04/11 04:15:35;;;;;;;5.33;3.37;;;2.80;99.90;;;;;;5418433;26;20210;-71
2024/04/11 04:18:03;;;;;;;5.03;2.70;;;2.80;99.90;;;;;;5418483;26;20230;-70
2024/04/11 04:20:32;;;;;;;4.50;3.10;;;2.80;99.90;;;;;;5418522;26;20292;-71
2024/04/11 04:23:10;;;;;;;5.83;3.90;;;2.80;99.90;;;;;;5418484;26;20222;-71
2024/04/11 04:25:39;;;;;;;5.30;3.97;;;2.90;99.90;;;;;;5419538;26;20209;-70
2024/04/11 04:28:08;;;;;;;5.47;3.37;;;2.90;99.90;;;;;;5417153;26;20281;-69
2024/04/11 04:30:34;;;;;;;6.10;3.57;;;2.80;99.90;;;;;;5418108;26;20233;-70
2024/04/11 04:33:04;;;;;;;7.87;5.20;;;2.70;99.90;;;;;;5418018;26;20225;-70
2024/04/11 04:35:30;;;;;;;5.83;4.77;;;2.70;99.90;;;;;;5418209;26;20303;-70
2024/04/11 04:38:00;;;;;;;5.37;4.67;;;2.70;99.90;;;;;;5418700;26;20236;-71
2024/04/11 04:40:26;;;;;;;8.23;4.70;;;2.70;99.90;;;;;;5418198;26;20268;-70
2024/04/11 04:42:58;;;;;;;4.27;3.87;;;2.70;99.90;;;;;;5417853;26;20222;-70
2024/04/11 04:45:24;;;;;;;4.53;3.97;;;2.80;99.90;;;;;;5417897;26;20318;-70
2024/04/11 04:47:53;;;;;;;4.33;3.23;;;2.80;99.90;;;;;;5417669;26;20229;-69
2024/04/11 04:50:19;;;;;;;7.73;3.80;;;2.80;99.90;;;;;;5417683;26;20237;-69
2024/04/11 04:52:48;;;;;;;9.73;3.37;;;2.70;99.90;;;;;;5417756;26;20252;-71
2024/04/11 04:55:17;;;;;;;6.73;3.93;;;2.80;99.90;;;;;;5417762;26;20221;-70
2024/04/11 04:57:45;;;;;;;4.07;3.20;;;2.80;99.90;;;;;;5417725;26;20592;-69
2024/04/11 05:00:15;;;;;;;4.83;3.90;;;2.80;99.90;;;;;;5417554;26;20264;-70
2024/04/11 05:02:43;;;;;;;4.33;3.63;;;2.70;99.90;;;;;;5417443;26;20228;-70
2024/04/11 05:05:11;;;;;;;6.80;3.83;;;2.70;99.90;;;;;;5417408;26;20264;-69
2024/04/11 05:07:40;;;;;;;4.70;3.20;;;2.70;99.90;;;;;;5417337;26;20225;-70
2024/04/11 05:10:06;;;;;;;8.27;3.43;;;2.70;99.90;;;;;;5417211;26;20229;-70
2024/04/11 05:12:43;;;;;;;7.30;3.13;;;2.70;99.90;;;;;;5417245;26;20271;-70
2024/04/11 05:15:12;;;;;;;7.37;4.03;;;2.70;99.90;;;;;;5417470;26;20255;-69
2024/04/11 05:17:44;;;;;;;5.97;4.13;;;2.70;99.90;;;;;;5417019;26;20233;-69
2024/04/11 05:20:17;;;;;;;596.47;60.27;;;2.70;99.90;;;;;;5416300;26;20226;-70
2024/04/11 05:22:49;;;;;;;7.63;3.90;;;2.80;99.90;;;;;;5416774;26;20213;-69
2024/04/11 05:25:17;;;;;;;7.87;4.57;;;2.90;99.90;;;;;;5416454;26;20218;-70
2024/04/11 05:27:46;;;;;;;7.60;5.23;;;2.90;99.90;;;;;;5416277;26;20260;-67
2024/04/11 05:30:12;;;;;;;5.97;4.23;;;3.00;99.90;;;;;;5415675;26;20248;-67
2024/04/11 05:32:46;;;;;;;9.73;4.23;;;3.10;99.90;;;;;;5416536;26;20227;-66
2024/04/11 05:35:14;;;;;;;8.33;4.03;;;3.20;99.90;;;;;;5417221;26;20209;-66
2024/04/11 05:37:44;;;;;;;5.70;3.50;;;3.20;99.90;;;;;;5416721;26;20275;-66
2024/04/11 05:40:12;;;;;;;7.50;3.73;;;3.30;99.90;;;;;;5420294;26;20260;-67
2024/04/11 05:42:44;;;;;;;5.07;3.50;;;3.40;99.90;;;;;;5420159;26;20326;-67
2024/04/11 05:45:11;;;;;;;5.13;3.80;;;3.50;99.90;;;;;;5420486;26;20706;-66
2024/04/11 05:47:40;;;;;;;5.77;4.30;;;3.60;99.90;;;;;;5420573;26;20218;-67
2024/04/11 05:50:09;;;;;;;6.17;4.23;;;3.60;99.90;;;;;;5420328;26;20741;-67
2024/04/11 05:52:38;;;;;;;8.17;4.07;;;3.70;99.90;;;;;;5419955;26;20237;-67
2024/04/11 05:55:04;;;;;;;9.00;4.57;;;3.70;99.90;;;;;;5419755;26;20620;-67
2024/04/11 05:57:32;;;;;;;6.43;4.13;;;3.80;99.90;;;;;;5420452;26;20225;-67
2024/04/11 05:59:58;;;;;;;4.27;3.87;;;3.80;99.90;;;;;;5419720;26;20237;-67
2024/04/11 06:02:34;;;;;;;11.27;3.63;;;3.90;99.90;;;;;;5419670;26;20252;-66
2024/04/11 06:05:01;;;;;;;10.77;3.57;;;4.00;99.90;;;;;;5419398;26;20253;-66
2024/04/11 06:07:39;;;;;;;3.97;3.57;;;4.10;99.90;;;;;;5419231;26;20771;-67
2024/04/11 06:10:11;;;;;;;4.07;3.50;;;4.20;99.90;;;;;;5419229;26;20572;-67
2024/04/11 06:12:43;;;;;;;3.90;3.33;;;4.30;99.90;;;;;;5419850;26;20316;-67
2024/04/11 06:15:11;;;;;;;4.00;3.63;;;4.30;99.90;;;;;;5419473;26;20221;-67
2024/04/11 06:17:38;;;;;;;5.37;3.77;;;4.30;99.90;;;;;;5419345;26;20260;-67
2024/04/11 06:20:15;;;;;;;5.80;3.77;;;4.40;99.90;;;;;;5419221;26;20218;-67
2024/04/11 06:22:49;;;;;;;4.93;3.93;;;4.40;99.90;;;;;;5419460;26;20214;-68
2024/04/11 06:25:18;;;;;;;4.00;3.60;;;4.50;99.90;;;;;;5419604;26;20277;-67
2024/04/11 06:27:44;;;;;;;7.00;3.57;;;4.50;99.90;;;;;;5419526;26;20710;-67
2024/04/11 06:30:19;;;;;;;4.27;3.67;;;4.60;99.90;;;;;;5419503;26;20221;-67
2024/04/11 06:32:46;;;;;;;5.03;3.87;;;4.80;99.90;;;;;;5419478;26;20213;-65
2024/04/11 06:35:15;;;;;;;5.63;4.30;;;5.00;99.90;;;;;;5419478;26;20753;-65
2024/04/11 06:37:44;;;;;;;7.17;4.77;;;5.20;99.90;;;;;;5419310;26;20225;-66
2024/04/11 06:40:14;;;;;;;7.30;4.87;;;5.40;99.90;;;;;;5419148;26;20217;-66
2024/04/11 06:42:46;;;;;;;5.57;4.97;;;5.60;99.90;;;;;;5419156;26;20261;-66
2024/04/11 06:45:19;;;;;;;7.33;5.23;;;5.70;99.90;;;;;;5419428;26;20218;-66
2024/04/11 06:47:45;;;;;;;7.87;5.17;;;5.80;99.90;;;;;;5419521;26;20209;-66
2024/04/11 06:50:14;;;;;;;7.87;5.57;;;5.90;99.90;;;;;;5418400;26;20315;-66
2024/04/11 06:52:42;;;;;;;8.53;5.43;;;6.10;99.90;;;;;;5419330;26;20222;-66
2024/04/11 06:55:14;;;;;;;10.33;5.80;;;6.30;99.90;;;;;;5418848;26;20217;-66
2024/04/11 06:57:40;;;;;;;7.23;4.40;;;6.40;99.90;;;;;;5419072;26;20217;-66
2024/04/11 07:00:14;;;;;;;6.83;4.57;;;6.60;99.90;;;;;;5418926;26;20573;-66
2024/04/11 07:02:44;;;;;;;6.97;4.47;;;6.80;99.90;;;;;;5418987;26;20214;-66
2024/04/11 07:05:16;;;;;;;5.73;5.00;;;6.90;99.90;;;;;;5418850;26;20267;-66
2024/04/11 07:07:45;;;;;;;7.03;4.63;;;7.10;99.90;;;;;;5418846;26;20256;-66
2024/04/11 07:10:24;;;;;;;7.50;4.90;;;7.30;99.90;;;;;;5418609;26;20256;-66
2024/04/11 07:12:50;;;;;;;5.17;4.60;;;7.30;99.90;;;;;;5419241;26;20248;-66
2024/04/11 07:15:19;;;;;;;7.77;4.53;;;7.40;99.90;;;;;;5418801;26;20322;-66
2024/04/11 07:17:56;;;;;;;6.33;4.70;;;7.50;99.90;;;;;;5418864;26;20229;-66
2024/04/11 07:20:30;;;;;;;6.37;4.30;;;7.60;99.90;;;;;;5418380;26;20249;-67
2024/04/11 07:22:58;;;;;;;4.83;4.33;;;7.70;97.40;;;;;;5418394;26;20548;-66
2024/04/11 07:25:32;;;;;;;5.23;4.07;;;7.80;99.90;;;;;;5418319;26;20225;-66
2024/04/11 07:28:00;;;;;;;5.10;4.03;;;7.90;39.30;;;;;;5418392;26;20214;-66
2024/04/11 07:30:29;;;;;;;4.00;3.53;;;8.10;25.50;;;;;;5418486;26;20334;-66
2024/04/11 07:32:56;;;;;;;6.93;3.87;;;8.30;1.70;;;;;;5418263;26;20230;-66
2024/04/11 07:35:26;;;;;;;4.67;4.20;;;8.40;1.00;;;;;;5418496;26;20225;-66
2024/04/11 07:37:52;;;;;;;7.70;3.70;;;8.60;1.00;;;;;;5418199;26;20225;-66
2024/04/11 07:40:32;;;;;;;7.57;4.00;;;8.80;1.00;;;;;;5418116;26;20737;-66
2024/04/11 07:43:09;;;;;;;6.27;4.03;;;8.80;1.00;;;;;;5418515;26;20259;-66
2024/04/11 07:45:40;;;;;;;5.93;3.97;;;8.80;1.00;;;;;;5418542;26;20560;-66
2024/04/11 07:48:08;;;;;;;7.07;4.10;;;9.20;99.90;;;;;;5418256;26;20210;-66
2024/04/11 07:50:37;;;;;;;4.80;3.80;;;9.40;99.90;;;;;;5418036;26;20358;-66
2024/04/11 07:53:07;;;;;;;4.73;4.33;;;9.50;1.00;;;;;;5418109;26;20225;-66
2024/04/11 07:55:36;;;;;;;10.47;3.97;;;9.60;99.90;;;;;;5418174;26;20386;-66
2024/04/11 07:58:05;;;;;;;4.80;3.70;;;9.60;1.00;;;;;;5418348;26;20233;-66
2024/04/11 08:00:39;;;;;;;4.47;4.07;;;9.70;99.90;;;;;;5418021;26;20726;-66
2024/04/11 08:03:07;;;;;;;6.67;3.63;;;9.90;99.90;;;;;;5416504;26;20674;-66
2024/04/11 08:05:36;;;;;;;6.97;3.80;;;10.20;47.10;;;;;;5417971;26;20319;-67
2024/04/11 08:08:04;;;;;;;6.70;3.87;;;10.30;1.00;;;;;;5417932;26;20226;-66
2024/04/11 08:10:32;;;;;;;6.07;3.63;;;10.40;99.90;;;;;;5417691;26;20602;-66
2024/04/11 08:13:01;;;;;;;5.50;3.70;;;10.60;1.00;;;;;;5418170;26;20255;-66
2024/04/11 08:15:32;;;;;;;4.60;3.47;;;10.50;96.50;;;;;;5417916;26;20221;-66
2024/04/11 08:18:00;;;;;;;4.30;3.90;;;10.60;1.00;;;;;;5417857;26;20265;-66
2024/04/11 08:20:29;;;;;;;6.77;3.93;;;10.70;1.00;;;;;;5417421;26;20287;-66
2024/04/11 08:22:57;;;;;;;5.90;3.23;;;10.90;83.30;;;;;;5417905;26;20762;-66
2024/04/11 08:25:26;;;;;;;7.40;3.50;;;11.20;99.90;;;;;;5417815;26;20221;-68
2024/04/11 08:27:54;;;;;;;3.70;3.13;;;11.20;1.00;;;;;;5417727;26;20256;-68
2024/04/11 08:30:23;;;;;;;4.80;3.20;;;11.30;1.00;;;;;;5418084;26;20604;-67
2024/04/11 08:32:51;;;;;;;6.17;3.30;;;11.50;99.90;;;;;;5417301;26;20218;-67
2024/04/11 08:35:20;;;;;;;6.37;3.40;;;11.60;99.90;;;;;;5417689;26;20217;-65
2024/04/11 08:37:47;;;;;;;4.90;3.03;;;11.70;1.00;;;;;;5417494;26;20221;-65
2024/04/11 08:40:16;;;;;;;3.30;3.00;;;11.90;1.00;;;;;;5417319;26;20272;-65
2024/04/11 08:42:42;;;;;;;4.30;3.00;;;12.00;1.00;;;;;;5417449;26;20229;-65
2024/04/11 08:45:12;;;;;;;3.17;2.83;;;12.20;1.00;;;;;;5417483;26;20625;-66
2024/04/11 08:47:39;;;;;;;7.43;3.50;;;12.20;99.90;;;;;;5417384;26;20330;-66
2024/04/11 08:50:11;;;;;;;7.10;3.80;;;12.20;1.00;;;;;;5417473;26;20229;-66
2024/04/11 08:52:40;;;;;;;9.53;4.13;;;12.30;1.00;;;;;;5417171;26;20252;-66
2024/04/11 08:55:10;;;;;;;6.30;3.47;;;12.40;99.90;;;;;;5417196;26;20261;-67
2024/04/11 08:57:37;;;;;;;5.13;2.87;;;12.50;99.90;;;;;;5417059;26;20217;-67
2024/04/11 09:00:12;;;;;;;5.27;3.53;;;12.70;99.90;;;;;;5416881;26;20811;-66
2024/04/11 09:02:41;;;;;;;4.90;3.00;;;12.90;99.90;;;;;;5417355;26;20237;-66
2024/04/11 09:05:14;;;;;;;4.67;3.50;;;13.30;99.90;;;;;;5416731;26;20248;-66
2024/04/11 09:07:40;;;;;;;5.50;3.37;;;13.30;1.00;;;;;;5417000;26;20549;-66
2024/04/11 09:10:09;;;;;;;4.90;3.20;;;13.50;99.90;;;;;;5416988;26;20229;-66
2024/04/11 09:12:35;;;;;;;5.43;2.63;;;13.70;1.00;;;;;;5416794;26;20221;-66
2024/04/11 09:15:09;;;;;;;6.43;2.90;;;14.00;1.00;;;;;;5419526;26;20260;-66
2024/04/11 09:17:39;;;;;;;4.47;2.47;;;14.20;1.00;;;;;;5420782;26;20238;-66
2024/04/11 09:20:12;;;;;;;3.40;2.13;;;14.40;80.70;;;;;;5419963;26;20222;-66
2024/04/11 09:22:47;;;;;;;3.37;2.17;;;14.30;95.70;;;;;;5420241;26;20346;-66
2024/04/11 09:25:17;;;;;;;6.20;2.67;;;14.40;92.40;;;;;;5420238;26;20317;-66
2024/04/11 09:27:50;;;;;;;4.38;2.78;;;14.50;93.90;;;;;;5420315;26;20214;-66
2024/04/11 09:30:22;;;;;;;4.32;2.42;;;14.50;97.50;;;;;;5420273;26;20245;-66
2024/04/11 09:32:49;;;;;;;2.58;1.48;;;14.70;97.60;;;;;;5420286;26;20269;-66
2024/04/11 09:35:20;;;;;;;2.53;2.00;;;14.80;99.90;;;;;;5420363;26;20274;-66
2024/04/11 09:37:54;;;;;;;1.85;1.45;;;14.90;99.90;;;;;;5420212;26;20262;-66
2024/04/11 09:40:26;;;;;;;2.58;1.70;;;15.10;99.90;;;;;;5420120;26;20742;-66
2024/04/11 09:43:03;;;;;;;4.22;2.08;;;15.40;99.90;;;;;;5420129;26;20722;-66
2024/04/11 09:45:32;;;;;;;3.53;2.25;;;15.30;99.70;;;;;;5420302;26;20217;-67
2024/04/11 09:48:02;;;;;;;3.67;2.00;;;15.30;99.20;;;;;;5420716;26;20259;-67
2024/04/11 09:50:30;;;;;;;3.28;1.95;;;15.30;99.90;;;;;;5420721;26;20225;-67
2024/04/11 09:53:02;;;;;;;3.47;1.95;;;15.40;99.90;;;;;;5420207;26;20222;-67
2024/04/11 09:55:33;;;;;;;5.38;2.30;;;15.70;98.90;;;;;;5420231;26;20707;-67
2024/04/11 09:58:04;;;;;;;3.72;2.13;;;16.10;99.20;;;;;;5420077;26;20214;-67
2024/04/11 10:03:15;;;;;;;4.47;1.98;;;16.70;99.90;;;;;;5404494;26;20221;-67
2024/04/11 10:05:45;;;;;;;3.25;2.03;;;16.70;96.50;;;;;;5419730;26;20229;-67
2024/04/11 10:08:27;;;;;;;3.65;2.22;;;16.80;97.00;;;;;;5420076;26;20261;-67
2024/04/11 10:10:54;;;;;;;3.45;1.55;;;16.80;94.80;;;;;;5420001;26;20230;-68
2024/04/11 10:13:25;;;;;;;9.10;2.33;;;17.20;94.50;;;;;;5419685;26;20229;-67
2024/04/11 10:16:03;;;;;;;4.32;2.10;;;17.40;92.70;;;;;;5419586;26;20213;-67
2024/04/11 10:18:41;;;;;;;2.42;1.90;;;17.50;91.40;;;;;;5420024;26;20235;-67
2024/04/11 10:21:11;;;;;;;4.00;2.10;;;17.70;96.60;;;;;;5419413;26;20367;-67
2024/04/11 10:23:43;;;;;;;4.80;1.88;;;17.80;92.00;;;;;;5419413;26;20295;-67
2024/04/11 10:26:14;;;;;;;2.67;1.77;;;17.50;91.50;;;;;;5418621;26;20294;-67
2024/04/11 10:28:51;;;;;;;2.85;1.95;;;17.70;88.40;;;;;;5419541;26;20210;-67
2024/04/11 10:31:19;;;;;;;3.30;1.70;;;17.90;80.50;;;;;;5419230;26;20339;-67
2024/04/11 10:33:53;;;;;;;4.68;2.17;;;17.70;80.20;;;;;;5419515;26;20229;-67
2024/04/11 10:36:21;;;;;;;4.10;2.10;;;18.20;91.00;;;;;;5419340;26;20218;-67
2024/04/11 10:38:57;;;;;;;3.78;1.77;;;18.90;87.00;;;;;;5419465;26;20271;-67
2024/04/11 10:41:23;;;;;;;2.53;1.45;;;19.10;81.80;;;;;;5419096;26;20260;-67
2024/04/11 10:43:55;;;;;;;3.75;1.67;;;19.10;76.80;;;;;;5419236;26;20225;-67
2024/04/11 10:46:23;;;;;;;4.53;1.90;;;19.40;75.30;;;;;;5419188;26;20314;-67
2024/04/11 10:48:56;;;;;;;3.47;1.15;;;20.00;78.00;;;;;;5418934;26;20766;-67
2024/04/11 10:51:22;;;;;;;3.30;1.55;;;20.20;64.40;;;;;;5418806;26;20237;-67
2024/04/11 10:54:09;;;;;;;6.38;1.50;;;19.60;63.10;;;;;;5419174;26;20217;-67
2024/04/11 10:56:39;;;;;;;2.33;1.42;;;19.50;59.50;;;;;;5419125;26;20658;-67
2024/04/11 10:59:12;;;;;;;3.92;1.80;;;19.30;64.40;;;;;;5419383;26;20314;-67
2024/04/11 11:01:41;;;;;;;1.83;1.63;;;19.30;60.90;;;;;;5418765;26;20233;-67
2024/04/11 11:04:09;;;;;;;3.35;1.60;;;19.70;65.50;;;;;;5419034;26;20237;-67
2024/04/11 11:06:47;;;;;;;3.20;1.90;;;20.30;64.00;;;;;;5419063;26;20256;-67
2024/04/11 11:09:19;;;;;;;3.08;1.88;;;20.60;58.10;;;;;;5419119;26;20225;-67
2024/04/11 11:11:46;;;;;;;3.83;1.70;;;20.50;54.90;;;;;;5418673;26;20252;-67
2024/04/11 11:14:17;;;;;;;3.42;1.98;;;20.80;58.90;;;;;;5418682;26;20271;-67
2024/04/11 11:16:44;;;;;;;2.65;1.40;;;21.30;57.90;;;;;;5418765;26;20710;-67
2024/04/11 11:19:15;;;;;;;3.38;2.10;;;21.30;56.70;;;;;;5418655;26;20307;-67
2024/04/11 11:21:50;;;;;;;2.38;1.40;;;21.50;52.00;;;;;;5417960;26;20722;-67
2024/04/11 11:24:24;;;;;;;5.13;2.00;;;20.80;58.00;;;;;;5418226;26;20342;-67
2024/04/11 11:26:55;;;;;;;2.95;1.90;;;21.10;54.20;;;;;;5418700;26;20543;-67
2024/04/11 11:29:26;;;;;;;3.95;1.52;;;22.30;52.70;;;;;;5418664;26;20221;-68
2024/04/11 11:31:53;;;;;;;2.22;1.60;;;22.50;53.50;;;;;;5418390;26;20257;-67
2024/04/11 11:34:27;;;;;;;3.60;1.33;;;21.90;55.30;;;;;;5418261;26;20225;-67
2024/04/11 11:36:59;;;;;;;6.68;1.83;;;21.90;51.60;;;;;;5418230;26;20257;-67
2024/04/11 11:39:33;;;;;;;2.38;1.63;;;20.90;51.40;;;;;;5418199;26;20314;-67
2024/04/11 11:42:08;;;;;;;6.22;2.35;;;21.00;51.80;;;;;;5418626;26;20269;-67
2024/04/11 11:45:05;;;;;;;5.07;2.00;;;21.30;49.90;;;;;;5418546;26;20564;-67
2024/04/11 11:47:33;;;;;;;6.03;2.10;;;22.10;48.80;;;;;;5418107;26;20213;-67
2024/04/11 11:50:07;;;;;;;3.95;1.65;;;22.60;48.20;;;;;;5417959;26;20310;-67
2024/04/11 11:52:34;;;;;;;4.13;1.80;;;23.40;51.80;;;;;;5418294;26;20213;-67
2024/04/11 11:55:06;;;;;;;2.20;1.83;;;24.10;48.70;;;;;;5418366;26;20321;-67
2024/04/11 11:57:39;;;;;;;4.40;2.55;;;23.70;44.30;;;;;;5418704;26;20799;-67
2024/04/11 12:00:19;;;;;;;7.75;2.47;;;22.30;45.80;;;;;;5418280;26;20214;-67
2024/04/11 12:02:50;;;;;;;3.67;1.83;;;21.90;44.00;;;;;;5418153;26;20547;-67
2024/04/11 12:05:23;;;;;;;5.38;2.33;;;22.00;43.60;;;;;;5418002;26;20251;-67
2024/04/11 12:07:51;;;;;;;3.53;1.88;;;21.90;44.70;;;;;;5418340;26;20568;-67
2024/04/11 12:10:29;;;;;;;5.85;2.20;;;22.80;41.00;;;;;;5417961;26;20245;-67
2024/04/11 12:13:10;;;;;;;5.72;2.22;;;24.10;46.90;;;;;;5417860;26;20677;-67
2024/04/11 12:15:40;;;;;;;8.48;2.17;;;24.20;40.70;;;;;;5418280;26;20269;-67
2024/04/11 12:18:11;;;;;;;7.82;2.10;;;23.80;38.90;;;;;;5418032;26;20697;-67
2024/04/11 12:20:41;;;;;;;9.48;2.40;;;23.50;37.10;;;;;;5417946;26;20773;-67
2024/04/11 12:23:07;;;;;;;5.32;2.50;;;23.50;37.60;;;;;;5417836;26;20598;-67
2024/04/11 12:25:38;;;;;;;4.28;1.85;;;23.90;39.40;;;;;;5417841;26;20248;-67
2024/04/11 12:28:09;;;;;;;4.88;2.58;;;24.60;37.70;;;;;;5417963;26;20253;-67
2024/04/11 12:30:40;;;;;;;5.63;1.70;;;24.00;33.80;;;;;;5417990;26;20233;-67
2024/04/11 12:33:08;;;;;;;5.32;1.90;;;24.10;35.50;;;;;;5417933;26;20249;-67
2024/04/11 12:35:45;;;;;;;7.75;2.20;;;25.20;32.80;;;;;;5417716;26;20651;-67
2024/04/11 12:38:14;;;;;;;4.10;2.25;;;24.80;32.90;;;;;;5417696;26;20213;-67
2024/04/11 12:40:48;;;;;;;4.80;1.83;;;24.70;30.00;;;;;;5417569;26;20245;-67
2024/04/11 12:43:15;;;;;;;5.82;2.08;;;25.30;35.90;;;;;;5417808;26;20208;-67
2024/04/11 12:45:51;;;;;;;4.53;2.08;;;24.70;31.10;;;;;;5417889;26;20326;-67
2024/04/11 12:48:20;;;;;;;5.75;2.22;;;25.50;31.30;;;;;;5416911;26;20252;-67
2024/04/11 12:50:50;;;;;;;3.22;1.77;;;26.00;28.20;;;;;;5417330;26;20233;-67
2024/04/11 12:53:21;;;;;;;4.13;2.00;;;25.50;28.80;;;;;;5417615;26;20222;-67
2024/04/11 12:55:52;;;;;;;4.57;1.85;;;26.20;27.00;;;;;;5417361;26;20273;-68
2024/04/11 12:58:19;;;;;;;4.10;1.83;;;27.00;31.50;;;;;;5417288;26;20277;-67
2024/04/11 13:00:57;;;;;;;5.05;2.08;;;28.10;28.30;;;;;;5417804;26;20255;-67
2024/04/11 13:03:52;;;;;;;2.83;1.83;;;27.90;26.20;;;;;;5417418;26;20322;-67
2024/04/11 13:06:27;;;;;;;4.97;1.92;;;26.20;22.10;;;;;;5417619;26;20221;-65
2024/04/11 13:08:55;;;;;;;5.40;1.48;;;26.10;29.30;;;;;;5417055;26;20213;-66
2024/04/11 13:11:36;;;;;;;4.72;2.00;;;26.10;26.10;;;;;;5416949;26;20752;-66